sensor_id;sensor_type;location;lat;lon;timestamp;temperature;humidity
74488;DHT22;63019;51.080;13.642;2023-03-21T00:00:34;9.60;99.90
74488;DHT22;63019;51.080;13.642;2023-03-21T00:01:36;9.60;99.90
74488;DHT22;63019;51.080;13.642;2023-03-21T00:02:39;9.60;99.90
74488;DHT22;63019;51.080;13.642;2023-03-21T00:03:42;9.60;99.90
74488;DHT22;63019;51.080;13.642;2023-03-21T00:04:44;9.60;99.90
74488;DHT22;63019;51.080;13.642;2023-03-21T00:06:09;9.60;99.90
74488;DHT22;63019;51.080;13.642;2023-03-21T00:07:12;9.60;99.90
74488;DHT22;63019;51.080;13.642;2023-03-21T00:08:15;9.60;99.90
74488;DHT22;63019;51.080;13.642;2023-03-21T00:09:18;9.50;99.90
74488;DHT22;63019;51.080;13.642;2023-03-21T00:10:21;9.50;99.90
74488;DHT22;63019;51.080;13.642;2023-03-21T00:11:40;9.50;99.90
74488;DHT22;63019;51.080;13.642;2023-03-21T00:12:45;9.50;99.90
74488;DHT22;63019;51.080;13.642;2023-03-21T00:13:51;9.40;99.90
74488;DHT22;63019;51.080;13.642;2023-03-21T00:14:54;9.40;99.90
74488;DHT22;63019;51.080;13.642;2023-03-21T00:16:14;9.40;99.90
74488;DHT22;63019;51.080;13.642;2023-03-21T00:17:26;9.30;99.90
74488;DHT22;63019;51.080;13.642;2023-03-21T00:18:33;9.30;99.90
74488;DHT22;63019;51.080;13.642;2023-03-21T00:19:43;9.30;99.90
74488;DHT22;63019;51.080;13.642;2023-03-21T00:21:01;9.30;99.90
74488;DHT22;63019;51.080;13.642;2023-03-21T00:22:25;9.30;99.90
74488;DHT22;63019;51.080;13.642;2023-03-21T00:23:30;9.30;99.90
74488;DHT22;63019;51.080;13.642;2023-03-21T00:24:34;9.30;99.90
74488;DHT22;63019;51.080;13.642;2023-03-21T00:25:38;9.20;99.90
74488;DHT22;63019;51.080;13.642;2023-03-21T00:26:42;9.20;99.90
74488;DHT22;63019;51.080;13.642;2023-03-21T00:27:44;9.20;99.90
74488;DHT22;63019;51.080;13.642;2023-03-21T00:29:07;9.20;99.90
74488;DHT22;63019;51.080;13.642;2023-03-21T00:30:11;9.10;99.90
74488;DHT22;63019;51.080;13.642;2023-03-21T00:31:16;9.10;99.90
74488;DHT22;63019;51.080;13.642;2023-03-21T00:32:19;9.10;99.90
74488;DHT22;63019;51.080;13.642;2023-03-21T00:33:22;9.10;99.90
74488;DHT22;63019;51.080;13.642;2023-03-21T00:34:26;9.10;99.90
74488;DHT22;63019;51.080;13.642;2023-03-21T00:35:45;9.00;99.90
74488;DHT22;63019;51.080;13.642;2023-03-21T00:37:08;9.00;99.90
74488;DHT22;63019;51.080;13.642;2023-03-21T00:38:11;9.00;99.90
74488;DHT22;63019;51.080;13.642;2023-03-21T00:39:13;9.00;99.90
74488;DHT22;63019;51.080;13.642;2023-03-21T00:40:17;9.00;99.90
74488;DHT22;63019;51.080;13.642;2023-03-21T00:41:33;9.00;99.90
74488;DHT22;63019;51.080;13.642;2023-03-21T00:42:44;9.00;99.90
74488;DHT22;63019;51.080;13.642;2023-03-21T00:43:48;9.00;99.90
74488;DHT22;63019;51.080;13.642;2023-03-21T00:44:51;9.00;99.90
74488;DHT22;63019;51.080;13.642;2023-03-21T00:45:55;9.00;99.90
74488;DHT22;63019;51.080;13.642;2023-03-21T00:46:58;9.00;99.90
74488;DHT22;63019;51.080;13.642;2023-03-21T00:48:09;9.00;99.90
74488;DHT22;63019;51.080;13.642;2023-03-21T00:49:11;9.00;99.90
74488;DHT22;63019;51.080;13.642;2023-03-21T00:50:15;9.00;99.90
74488;DHT22;63019;51.080;13.642;2023-03-21T00:51:21;9.00;99.90
74488;DHT22;63019;51.080;13.642;2023-03-21T00:52:27;9.00;99.90
74488;DHT22;63019;51.080;13.642;2023-03-21T00:53:41;9.00;99.90
74488;DHT22;63019;51.080;13.642;2023-03-21T00:54:44;9.00;99.90
74488;DHT22;63019;51.080;13.642;2023-03-21T00:55:46;9.00;99.90
74488;DHT22;63019;51.080;13.642;2023-03-21T00:56:49;9.00;99.90
74488;DHT22;63019;51.080;13.642;2023-03-21T00:57:52;9.00;99.90
74488;DHT22;63019;51.080;13.642;2023-03-21T00:59:03;9.00;99.90
74488;DHT22;63019;51.080;13.642;2023-03-21T01:00:07;9.00;99.90
74488;DHT22;63019;51.080;13.642;2023-03-21T01:01:11;9.00;99.90
74488;DHT22;63019;51.080;13.642;2023-03-21T01:02:14;9.10;99.90
74488;DHT22;63019;51.080;13.642;2023-03-21T01:03:24;9.00;99.90
74488;DHT22;63019;51.080;13.642;2023-03-21T01:04:27;9.00;99.90
74488;DHT22;63019;51.080;13.642;2023-03-21T01:05:44;9.00;99.90
74488;DHT22;63019;51.080;13.642;2023-03-21T01:07:09;9.00;99.90
74488;DHT22;63019;51.080;13.642;2023-03-21T01:08:13;9.00;99.90
74488;DHT22;63019;51.080;13.642;2023-03-21T01:09:28;8.90;99.90
74488;DHT22;63019;51.080;13.642;2023-03-21T01:10:32;8.90;99.90
74488;DHT22;63019;51.080;13.642;2023-03-21T01:11:34;8.90;99.90
74488;DHT22;63019;51.080;13.642;2023-03-21T01:12:37;8.90;99.90
74488;DHT22;63019;51.080;13.642;2023-03-21T01:13:42;8.90;99.90
74488;DHT22;63019;51.080;13.642;2023-03-21T01:14:56;8.90;99.90
74488;DHT22;63019;51.080;13.642;2023-03-21T01:15:59;8.90;99.90
74488;DHT22;63019;51.080;13.642;2023-03-21T01:17:02;8.90;99.90
74488;DHT22;63019;51.080;13.642;2023-03-21T01:18:05;8.90;99.90
74488;DHT22;63019;51.080;13.642;2023-03-21T01:19:10;8.90;99.90
74488;DHT22;63019;51.080;13.642;2023-03-21T01:20:26;8.90;99.90
74488;DHT22;63019;51.080;13.642;2023-03-21T01:21:30;9.00;99.90
74488;DHT22;63019;51.080;13.642;2023-03-21T01:22:33;8.90;99.90
74488;DHT22;63019;51.080;13.642;2023-03-21T01:23:35;8.90;99.90
74488;DHT22;63019;51.080;13.642;2023-03-21T01:24:38;8.90;99.90
74488;DHT22;63019;51.080;13.642;2023-03-21T01:25:55;8.90;99.90
74488;DHT22;63019;51.080;13.642;2023-03-21T01:26:58;8.90;99.90
74488;DHT22;63019;51.080;13.642;2023-03-21T01:28:01;8.90;99.90
74488;DHT22;63019;51.080;13.642;2023-03-21T01:29:04;8.90;99.90
74488;DHT22;63019;51.080;13.642;2023-03-21T01:30:07;8.90;99.90
74488;DHT22;63019;51.080;13.642;2023-03-21T01:31:21;8.90;99.90
74488;DHT22;63019;51.080;13.642;2023-03-21T01:32:24;9.00;99.90
74488;DHT22;63019;51.080;13.642;2023-03-21T01:33:26;9.10;99.90
74488;DHT22;63019;51.080;13.642;2023-03-21T01:34:29;9.10;99.90
74488;DHT22;63019;51.080;13.642;2023-03-21T01:35:35;9.10;99.90
74488;DHT22;63019;51.080;13.642;2023-03-21T01:36:49;9.20;99.90
74488;DHT22;63019;51.080;13.642;2023-03-21T01:37:54;9.20;99.90
74488;DHT22;63019;51.080;13.642;2023-03-21T01:38:56;9.20;99.90
74488;DHT22;63019;51.080;13.642;2023-03-21T01:39:59;9.10;99.90
74488;DHT22;63019;51.080;13.642;2023-03-21T01:41:02;9.20;99.90
74488;DHT22;63019;51.080;13.642;2023-03-21T01:42:14;9.20;99.90
74488;DHT22;63019;51.080;13.642;2023-03-21T01:43:26;9.20;99.90
74488;DHT22;63019;51.080;13.642;2023-03-21T01:44:30;9.20;99.90
74488;DHT22;63019;51.080;13.642;2023-03-21T01:47:14;9.20;99.90
74488;DHT22;63019;51.080;13.642;2023-03-21T01:48:17;9.20;99.90
74488;DHT22;63019;51.080;13.642;2023-03-21T01:49:48;9.10;99.90
74488;DHT22;63019;51.080;13.642;2023-03-21T01:50:53;9.10;99.90
74488;DHT22;63019;51.080;13.642;2023-03-21T01:52:03;9.10;99.90
74488;DHT22;63019;51.080;13.642;2023-03-21T01:53:17;9.10;99.90
74488;DHT22;63019;51.080;13.642;2023-03-21T01:54:25;9.10;99.90
74488;DHT22;63019;51.080;13.642;2023-03-21T01:55:31;9.10;99.90
74488;DHT22;63019;51.080;13.642;2023-03-21T01:56:36;9.10;99.90
74488;DHT22;63019;51.080;13.642;2023-03-21T01:57:44;9.10;99.90
74488;DHT22;63019;51.080;13.642;2023-03-21T01:59:13;9.00;99.90
74488;DHT22;63019;51.080;13.642;2023-03-21T02:00:19;9.00;99.90
74488;DHT22;63019;51.080;13.642;2023-03-21T02:01:23;8.90;99.90
74488;DHT22;63019;51.080;13.642;2023-03-21T02:02:28;8.90;99.90
74488;DHT22;63019;51.080;13.642;2023-03-21T02:03:32;8.80;99.90
74488;DHT22;63019;51.080;13.642;2023-03-21T02:04:40;8.70;99.90
74488;DHT22;63019;51.080;13.642;2023-03-21T02:05:57;8.70;99.90
74488;DHT22;63019;51.080;13.642;2023-03-21T02:07:08;8.70;99.90
74488;DHT22;63019;51.080;13.642;2023-03-21T02:08:12;8.70;99.90
74488;DHT22;63019;51.080;13.642;2023-03-21T02:09:19;8.60;99.90
74488;DHT22;63019;51.080;13.642;2023-03-21T02:10:23;8.60;99.90
74488;DHT22;63019;51.080;13.642;2023-03-21T02:11:26;8.60;99.90
74488;DHT22;63019;51.080;13.642;2023-03-21T02:12:28;8.60;99.90
74488;DHT22;63019;51.080;13.642;2023-03-21T02:13:30;8.60;99.90
74488;DHT22;63019;51.080;13.642;2023-03-21T02:14:36;8.50;99.90
74488;DHT22;63019;51.080;13.642;2023-03-21T02:15:47;8.60;99.90
74488;DHT22;63019;51.080;13.642;2023-03-21T02:17:10;8.50;99.90
74488;DHT22;63019;51.080;13.642;2023-03-21T02:18:45;8.50;99.90
74488;DHT22;63019;51.080;13.642;2023-03-21T02:27:30;8.50;99.90
74488;DHT22;63019;51.080;13.642;2023-03-21T02:28:12;8.50;99.90
74488;DHT22;63019;51.080;13.642;2023-03-21T02:38:14;8.30;99.90
74488;DHT22;63019;51.080;13.642;2023-03-21T02:39:38;8.30;99.90
74488;DHT22;63019;51.080;13.642;2023-03-21T02:41:15;8.30;99.90
74488;DHT22;63019;51.080;13.642;2023-03-21T02:44:15;8.20;99.90
74488;DHT22;63019;51.080;13.642;2023-03-21T02:45:27;8.10;99.90
74488;DHT22;63019;51.080;13.642;2023-03-21T02:46:41;8.10;99.90
74488;DHT22;63019;51.080;13.642;2023-03-21T02:48:02;8.10;99.90
74488;DHT22;63019;51.080;13.642;2023-03-21T02:49:34;8.10;99.90
74488;DHT22;63019;51.080;13.642;2023-03-21T02:50:49;8.00;99.90
74488;DHT22;63019;51.080;13.642;2023-03-21T02:51:52;8.00;99.90
74488;DHT22;63019;51.080;13.642;2023-03-21T02:53:03;8.00;99.90
74488;DHT22;63019;51.080;13.642;2023-03-21T02:54:12;7.90;99.90
74488;DHT22;63019;51.080;13.642;2023-03-21T02:55:36;7.90;99.90
74488;DHT22;63019;51.080;13.642;2023-03-21T02:56:40;7.90;99.90
74488;DHT22;63019;51.080;13.642;2023-03-21T02:57:45;7.90;99.90
74488;DHT22;63019;51.080;13.642;2023-03-21T02:58:48;7.90;99.90
74488;DHT22;63019;51.080;13.642;2023-03-21T02:59:52;7.90;99.90
74488;DHT22;63019;51.080;13.642;2023-03-21T03:01:05;7.80;99.90
74488;DHT22;63019;51.080;13.642;2023-03-21T03:02:10;7.80;99.90
74488;DHT22;63019;51.080;13.642;2023-03-21T03:03:13;7.80;99.90
74488;DHT22;63019;51.080;13.642;2023-03-21T03:04:34;7.80;99.90
74488;DHT22;63019;51.080;13.642;2023-03-21T03:05:44;7.80;99.90
74488;DHT22;63019;51.080;13.642;2023-03-21T03:11:33;7.80;99.90
74488;DHT22;63019;51.080;13.642;2023-03-21T03:20:17;8.10;99.90
74488;DHT22;63019;51.080;13.642;2023-03-21T03:21:40;8.00;99.90
74488;DHT22;63019;51.080;13.642;2023-03-21T03:23:03;8.00;99.90
74488;DHT22;63019;51.080;13.642;2023-03-21T03:25:13;8.00;99.90
74488;DHT22;63019;51.080;13.642;2023-03-21T03:26:41;8.00;99.90
74488;DHT22;63019;51.080;13.642;2023-03-21T03:27:48;8.00;99.90
74488;DHT22;63019;51.080;13.642;2023-03-21T03:28:58;7.90;99.90
74488;DHT22;63019;51.080;13.642;2023-03-21T03:30:03;7.90;99.90
74488;DHT22;63019;51.080;13.642;2023-03-21T03:31:07;7.90;99.90
74488;DHT22;63019;51.080;13.642;2023-03-21T03:32:20;7.90;99.90
74488;DHT22;63019;51.080;13.642;2023-03-21T03:33:26;7.90;99.90
74488;DHT22;63019;51.080;13.642;2023-03-21T03:34:32;7.90;99.90
74488;DHT22;63019;51.080;13.642;2023-03-21T03:35:35;7.90;99.90
74488;DHT22;63019;51.080;13.642;2023-03-21T03:36:40;7.90;99.90
74488;DHT22;63019;51.080;13.642;2023-03-21T03:37:46;7.90;99.90
74488;DHT22;63019;51.080;13.642;2023-03-21T03:38:50;7.90;99.90
74488;DHT22;63019;51.080;13.642;2023-03-21T03:40:14;7.90;99.90
74488;DHT22;63019;51.080;13.642;2023-03-21T03:41:24;7.90;99.90
74488;DHT22;63019;51.080;13.642;2023-03-21T03:42:30;7.90;99.90
74488;DHT22;63019;51.080;13.642;2023-03-21T03:43:39;7.90;99.90
74488;DHT22;63019;51.080;13.642;2023-03-21T03:44:43;8.00;99.90
74488;DHT22;63019;51.080;13.642;2023-03-21T03:45:54;8.00;99.90
74488;DHT22;63019;51.080;13.642;2023-03-21T03:47:09;8.00;99.90
74488;DHT22;63019;51.080;13.642;2023-03-21T03:48:28;8.00;99.90
74488;DHT22;63019;51.080;13.642;2023-03-21T03:49:40;8.00;99.90
74488;DHT22;63019;51.080;13.642;2023-03-21T03:50:49;8.00;99.90
74488;DHT22;63019;51.080;13.642;2023-03-21T03:54:38;8.00;99.90
74488;DHT22;63019;51.080;13.642;2023-03-21T03:55:41;8.00;99.90
74488;DHT22;63019;51.080;13.642;2023-03-21T03:56:44;8.00;99.90
74488;DHT22;63019;51.080;13.642;2023-03-21T03:57:47;7.90;99.90
74488;DHT22;63019;51.080;13.642;2023-03-21T03:58:50;7.90;99.90
74488;DHT22;63019;51.080;13.642;2023-03-21T03:59:52;7.90;99.90
74488;DHT22;63019;51.080;13.642;2023-03-21T04:00:54;7.90;99.90
74488;DHT22;63019;51.080;13.642;2023-03-21T04:01:56;7.90;99.90
74488;DHT22;63019;51.080;13.642;2023-03-21T04:02:58;8.00;99.90
74488;DHT22;63019;51.080;13.642;2023-03-21T04:04:01;8.00;99.90
74488;DHT22;63019;51.080;13.642;2023-03-21T04:05:13;8.10;99.90
74488;DHT22;63019;51.080;13.642;2023-03-21T04:06:16;8.10;99.90
74488;DHT22;63019;51.080;13.642;2023-03-21T04:07:20;8.10;99.90
74488;DHT22;63019;51.080;13.642;2023-03-21T04:08:22;8.10;99.90
74488;DHT22;63019;51.080;13.642;2023-03-21T04:09:25;8.10;99.90
74488;DHT22;63019;51.080;13.642;2023-03-21T04:10:44;8.10;99.90
74488;DHT22;63019;51.080;13.642;2023-03-21T04:11:46;8.10;99.90
74488;DHT22;63019;51.080;13.642;2023-03-21T04:12:48;8.10;99.90
74488;DHT22;63019;51.080;13.642;2023-03-21T04:13:50;8.10;99.90
74488;DHT22;63019;51.080;13.642;2023-03-21T04:14:52;8.10;99.90
74488;DHT22;63019;51.080;13.642;2023-03-21T04:16:02;8.00;99.90
74488;DHT22;63019;51.080;13.642;2023-03-21T04:17:05;8.00;99.90
74488;DHT22;63019;51.080;13.642;2023-03-21T04:18:07;7.90;99.90
74488;DHT22;63019;51.080;13.642;2023-03-21T04:19:08;7.90;99.90
74488;DHT22;63019;51.080;13.642;2023-03-21T04:20:10;7.90;99.90
74488;DHT22;63019;51.080;13.642;2023-03-21T04:21:27;7.90;99.90
74488;DHT22;63019;51.080;13.642;2023-03-21T04:22:29;7.90;99.90
74488;DHT22;63019;51.080;13.642;2023-03-21T04:23:31;7.90;99.90
74488;DHT22;63019;51.080;13.642;2023-03-21T04:24:33;8.00;99.90
74488;DHT22;63019;51.080;13.642;2023-03-21T04:25:37;8.00;99.90
74488;DHT22;63019;51.080;13.642;2023-03-21T04:26:51;8.00;99.90
74488;DHT22;63019;51.080;13.642;2023-03-21T04:27:54;7.90;99.90
74488;DHT22;63019;51.080;13.642;2023-03-21T04:28:56;8.00;99.90
74488;DHT22;63019;51.080;13.642;2023-03-21T04:30:01;8.00;99.90
74488;DHT22;63019;51.080;13.642;2023-03-21T04:31:06;8.00;99.90
74488;DHT22;63019;51.080;13.642;2023-03-21T04:32:26;8.00;99.90
74488;DHT22;63019;51.080;13.642;2023-03-21T04:33:27;8.10;99.90
74488;DHT22;63019;51.080;13.642;2023-03-21T04:34:29;8.10;99.90
74488;DHT22;63019;51.080;13.642;2023-03-21T04:35:31;8.10;99.90
74488;DHT22;63019;51.080;13.642;2023-03-21T04:36:37;8.10;99.90
74488;DHT22;63019;51.080;13.642;2023-03-21T04:37:40;8.10;99.90
74488;DHT22;63019;51.080;13.642;2023-03-21T04:38:42;8.00;99.90
74488;DHT22;63019;51.080;13.642;2023-03-21T04:39:46;8.10;99.90
74488;DHT22;63019;51.080;13.642;2023-03-21T04:40:48;8.00;99.90
74488;DHT22;63019;51.080;13.642;2023-03-21T04:41:50;8.00;99.90
74488;DHT22;63019;51.080;13.642;2023-03-21T04:42:52;8.00;99.90
74488;DHT22;63019;51.080;13.642;2023-03-21T04:43:54;8.00;99.90
74488;DHT22;63019;51.080;13.642;2023-03-21T04:44:57;8.00;99.90
74488;DHT22;63019;51.080;13.642;2023-03-21T04:45:58;7.90;99.90
74488;DHT22;63019;51.080;13.642;2023-03-21T04:47:00;8.00;99.90
74488;DHT22;63019;51.080;13.642;2023-03-21T04:48:02;7.90;99.90
74488;DHT22;63019;51.080;13.642;2023-03-21T04:49:04;7.90;99.90
74488;DHT22;63019;51.080;13.642;2023-03-21T04:50:09;7.90;99.90
74488;DHT22;63019;51.080;13.642;2023-03-21T04:51:11;8.00;99.90
74488;DHT22;63019;51.080;13.642;2023-03-21T04:52:14;8.00;99.90
74488;DHT22;63019;51.080;13.642;2023-03-21T04:53:16;7.90;99.90
74488;DHT22;63019;51.080;13.642;2023-03-21T04:54:18;7.90;99.90
74488;DHT22;63019;51.080;13.642;2023-03-21T04:55:21;7.90;99.90
74488;DHT22;63019;51.080;13.642;2023-03-21T04:56:28;7.80;99.90
74488;DHT22;63019;51.080;13.642;2023-03-21T04:57:34;7.80;99.90
74488;DHT22;63019;51.080;13.642;2023-03-21T04:58:37;7.80;99.90
74488;DHT22;63019;51.080;13.642;2023-03-21T04:59:41;7.80;99.90
74488;DHT22;63019;51.080;13.642;2023-03-21T05:00:42;7.70;99.90
74488;DHT22;63019;51.080;13.642;2023-03-21T05:01:45;7.70;99.90
74488;DHT22;63019;51.080;13.642;2023-03-21T05:02:46;7.70;99.90
74488;DHT22;63019;51.080;13.642;2023-03-21T05:03:48;7.70;99.90
74488;DHT22;63019;51.080;13.642;2023-03-21T05:04:50;7.70;99.90
74488;DHT22;63019;51.080;13.642;2023-03-21T05:05:52;7.70;99.90
74488;DHT22;63019;51.080;13.642;2023-03-21T05:06:54;7.70;99.90
74488;DHT22;63019;51.080;13.642;2023-03-21T05:07:56;7.70;99.90
74488;DHT22;63019;51.080;13.642;2023-03-21T05:08:59;7.70;99.90
74488;DHT22;63019;51.080;13.642;2023-03-21T05:10:02;7.70;99.90
74488;DHT22;63019;51.080;13.642;2023-03-21T05:11:04;7.70;99.90
74488;DHT22;63019;51.080;13.642;2023-03-21T05:12:06;7.70;99.90
74488;DHT22;63019;51.080;13.642;2023-03-21T05:13:08;7.70;99.90
74488;DHT22;63019;51.080;13.642;2023-03-21T05:14:13;7.60;99.90
74488;DHT22;63019;51.080;13.642;2023-03-21T05:15:16;7.60;99.90
74488;DHT22;63019;51.080;13.642;2023-03-21T05:16:18;7.60;99.90
74488;DHT22;63019;51.080;13.642;2023-03-21T05:17:19;7.60;99.90
74488;DHT22;63019;51.080;13.642;2023-03-21T05:18:25;7.60;99.90
74488;DHT22;63019;51.080;13.642;2023-03-21T05:19:29;7.70;99.90
74488;DHT22;63019;51.080;13.642;2023-03-21T05:20:41;7.70;99.90
74488;DHT22;63019;51.080;13.642;2023-03-21T05:21:43;7.70;99.90
74488;DHT22;63019;51.080;13.642;2023-03-21T05:22:45;7.70;99.90
74488;DHT22;63019;51.080;13.642;2023-03-21T05:23:50;7.70;99.90
74488;DHT22;63019;51.080;13.642;2023-03-21T05:24:54;7.70;99.90
74488;DHT22;63019;51.080;13.642;2023-03-21T05:25:56;7.70;99.90
74488;DHT22;63019;51.080;13.642;2023-03-21T05:26:59;7.70;99.90
74488;DHT22;63019;51.080;13.642;2023-03-21T05:28:05;7.80;99.90
74488;DHT22;63019;51.080;13.642;2023-03-21T05:29:08;7.80;99.90
74488;DHT22;63019;51.080;13.642;2023-03-21T05:30:13;7.70;99.90
74488;DHT22;63019;51.080;13.642;2023-03-21T05:31:16;7.80;99.90
74488;DHT22;63019;51.080;13.642;2023-03-21T05:32:19;7.80;99.90
74488;DHT22;63019;51.080;13.642;2023-03-21T05:33:20;7.80;99.90
74488;DHT22;63019;51.080;13.642;2023-03-21T05:34:22;7.80;99.90
74488;DHT22;63019;51.080;13.642;2023-03-21T05:35:25;7.80;99.90
74488;DHT22;63019;51.080;13.642;2023-03-21T05:36:27;7.80;99.90
74488;DHT22;63019;51.080;13.642;2023-03-21T05:37:29;7.70;99.90
74488;DHT22;63019;51.080;13.642;2023-03-21T05:38:31;7.80;99.90
74488;DHT22;63019;51.080;13.642;2023-03-21T05:39:33;7.80;99.90
74488;DHT22;63019;51.080;13.642;2023-03-21T05:40:34;7.80;99.90
74488;DHT22;63019;51.080;13.642;2023-03-21T05:41:36;7.80;99.90
74488;DHT22;63019;51.080;13.642;2023-03-21T05:42:38;7.80;99.90
74488;DHT22;63019;51.080;13.642;2023-03-21T05:43:40;7.80;99.90
74488;DHT22;63019;51.080;13.642;2023-03-21T05:44:42;7.80;99.90
74488;DHT22;63019;51.080;13.642;2023-03-21T05:45:44;7.70;99.90
74488;DHT22;63019;51.080;13.642;2023-03-21T05:46:45;7.70;99.90
74488;DHT22;63019;51.080;13.642;2023-03-21T05:47:47;7.70;99.90
74488;DHT22;63019;51.080;13.642;2023-03-21T05:48:49;7.70;99.90
74488;DHT22;63019;51.080;13.642;2023-03-21T05:49:51;7.80;99.90
74488;DHT22;63019;51.080;13.642;2023-03-21T05:50:53;7.80;99.90
74488;DHT22;63019;51.080;13.642;2023-03-21T05:51:55;7.80;99.90
74488;DHT22;63019;51.080;13.642;2023-03-21T05:52:56;7.80;99.90
74488;DHT22;63019;51.080;13.642;2023-03-21T05:53:58;7.80;99.90
74488;DHT22;63019;51.080;13.642;2023-03-21T05:55:00;7.80;99.90
74488;DHT22;63019;51.080;13.642;2023-03-21T05:56:02;7.80;99.90
74488;DHT22;63019;51.080;13.642;2023-03-21T05:57:04;7.80;99.90
74488;DHT22;63019;51.080;13.642;2023-03-21T05:58:06;7.80;99.90
74488;DHT22;63019;51.080;13.642;2023-03-21T05:59:08;7.70;99.90
74488;DHT22;63019;51.080;13.642;2023-03-21T06:00:10;7.80;99.90
74488;DHT22;63019;51.080;13.642;2023-03-21T06:01:12;7.80;99.90
74488;DHT22;63019;51.080;13.642;2023-03-21T06:02:14;7.80;99.90
74488;DHT22;63019;51.080;13.642;2023-03-21T06:03:17;7.80;99.90
74488;DHT22;63019;51.080;13.642;2023-03-21T06:04:19;7.80;99.90
74488;DHT22;63019;51.080;13.642;2023-03-21T06:05:21;7.80;99.90
74488;DHT22;63019;51.080;13.642;2023-03-21T06:06:23;7.80;99.90
74488;DHT22;63019;51.080;13.642;2023-03-21T06:07:24;7.80;99.90
74488;DHT22;63019;51.080;13.642;2023-03-21T06:08:26;7.90;99.90
74488;DHT22;63019;51.080;13.642;2023-03-21T06:09:28;8.00;99.90
74488;DHT22;63019;51.080;13.642;2023-03-21T06:10:30;8.00;99.90
74488;DHT22;63019;51.080;13.642;2023-03-21T06:11:34;8.00;99.90
74488;DHT22;63019;51.080;13.642;2023-03-21T06:12:37;8.00;99.90
74488;DHT22;63019;51.080;13.642;2023-03-21T06:13:38;8.10;99.90
74488;DHT22;63019;51.080;13.642;2023-03-21T06:14:40;8.00;99.90
74488;DHT22;63019;51.080;13.642;2023-03-21T06:15:42;8.00;99.90
74488;DHT22;63019;51.080;13.642;2023-03-21T06:16:44;8.00;99.90
74488;DHT22;63019;51.080;13.642;2023-03-21T06:17:46;8.00;99.90
74488;DHT22;63019;51.080;13.642;2023-03-21T06:18:48;8.00;99.90
74488;DHT22;63019;51.080;13.642;2023-03-21T06:19:49;8.10;99.90
74488;DHT22;63019;51.080;13.642;2023-03-21T06:20:51;8.10;99.90
74488;DHT22;63019;51.080;13.642;2023-03-21T06:21:54;8.10;99.90
74488;DHT22;63019;51.080;13.642;2023-03-21T06:22:56;8.10;99.90
74488;DHT22;63019;51.080;13.642;2023-03-21T06:23:58;8.10;99.90
74488;DHT22;63019;51.080;13.642;2023-03-21T06:25:00;8.00;99.90
74488;DHT22;63019;51.080;13.642;2023-03-21T06:26:03;8.00;99.90
74488;DHT22;63019;51.080;13.642;2023-03-21T06:27:05;8.10;99.90
74488;DHT22;63019;51.080;13.642;2023-03-21T06:28:06;8.10;99.90
74488;DHT22;63019;51.080;13.642;2023-03-21T06:29:08;8.10;99.90
74488;DHT22;63019;51.080;13.642;2023-03-21T06:30:11;8.10;99.90
74488;DHT22;63019;51.080;13.642;2023-03-21T06:31:13;8.10;99.90
74488;DHT22;63019;51.080;13.642;2023-03-21T06:32:15;8.10;99.90
74488;DHT22;63019;51.080;13.642;2023-03-21T06:33:16;8.10;99.90
74488;DHT22;63019;51.080;13.642;2023-03-21T06:34:18;8.00;99.90
74488;DHT22;63019;51.080;13.642;2023-03-21T06:35:20;8.00;99.90
74488;DHT22;63019;51.080;13.642;2023-03-21T06:36:22;7.90;99.90
74488;DHT22;63019;51.080;13.642;2023-03-21T06:37:23;7.90;99.90
74488;DHT22;63019;51.080;13.642;2023-03-21T06:38:27;7.90;99.90
74488;DHT22;63019;51.080;13.642;2023-03-21T06:39:29;7.90;99.90
74488;DHT22;63019;51.080;13.642;2023-03-21T06:40:31;8.00;99.90
74488;DHT22;63019;51.080;13.642;2023-03-21T06:41:33;8.00;99.90
74488;DHT22;63019;51.080;13.642;2023-03-21T06:42:35;8.00;99.90
74488;DHT22;63019;51.080;13.642;2023-03-21T06:43:37;8.00;99.90
74488;DHT22;63019;51.080;13.642;2023-03-21T06:44:39;7.90;99.90
74488;DHT22;63019;51.080;13.642;2023-03-21T06:45:42;7.90;99.90
74488;DHT22;63019;51.080;13.642;2023-03-21T06:46:43;7.90;99.90
74488;DHT22;63019;51.080;13.642;2023-03-21T06:47:46;7.90;99.90
74488;DHT22;63019;51.080;13.642;2023-03-21T06:48:48;8.00;99.90
74488;DHT22;63019;51.080;13.642;2023-03-21T06:49:49;7.90;99.90
74488;DHT22;63019;51.080;13.642;2023-03-21T06:50:52;8.00;99.90
74488;DHT22;63019;51.080;13.642;2023-03-21T06:51:54;8.00;99.90
74488;DHT22;63019;51.080;13.642;2023-03-21T06:52:56;8.00;99.90
74488;DHT22;63019;51.080;13.642;2023-03-21T06:54:00;8.10;99.90
74488;DHT22;63019;51.080;13.642;2023-03-21T06:55:02;8.10;99.90
74488;DHT22;63019;51.080;13.642;2023-03-21T06:56:04;8.10;99.90
74488;DHT22;63019;51.080;13.642;2023-03-21T06:57:06;8.10;99.90
74488;DHT22;63019;51.080;13.642;2023-03-21T06:58:08;8.20;99.90
74488;DHT22;63019;51.080;13.642;2023-03-21T06:59:10;8.30;99.90
74488;DHT22;63019;51.080;13.642;2023-03-21T07:00:12;8.30;99.90
74488;DHT22;63019;51.080;13.642;2023-03-21T07:01:15;8.30;99.90
74488;DHT22;63019;51.080;13.642;2023-03-21T07:02:17;8.30;99.90
74488;DHT22;63019;51.080;13.642;2023-03-21T07:03:18;8.30;99.90
74488;DHT22;63019;51.080;13.642;2023-03-21T07:04:20;8.30;99.90
74488;DHT22;63019;51.080;13.642;2023-03-21T07:05:22;8.40;99.90
74488;DHT22;63019;51.080;13.642;2023-03-21T07:06:24;8.40;99.90
74488;DHT22;63019;51.080;13.642;2023-03-21T07:07:29;8.40;99.90
74488;DHT22;63019;51.080;13.642;2023-03-21T07:08:31;8.40;99.90
74488;DHT22;63019;51.080;13.642;2023-03-21T07:09:33;8.40;99.90
74488;DHT22;63019;51.080;13.642;2023-03-21T07:10:39;8.50;99.90
74488;DHT22;63019;51.080;13.642;2023-03-21T07:11:41;8.50;99.90
74488;DHT22;63019;51.080;13.642;2023-03-21T07:12:43;8.50;99.90
74488;DHT22;63019;51.080;13.642;2023-03-21T07:13:45;8.50;99.90
74488;DHT22;63019;51.080;13.642;2023-03-21T07:14:47;8.50;99.90
74488;DHT22;63019;51.080;13.642;2023-03-21T07:15:49;8.60;99.90
74488;DHT22;63019;51.080;13.642;2023-03-21T07:16:50;8.60;99.90
74488;DHT22;63019;51.080;13.642;2023-03-21T07:17:52;8.60;99.90
74488;DHT22;63019;51.080;13.642;2023-03-21T07:18:54;8.70;99.90
74488;DHT22;63019;51.080;13.642;2023-03-21T07:19:56;8.70;99.90
74488;DHT22;63019;51.080;13.642;2023-03-21T07:20:58;8.70;99.90
74488;DHT22;63019;51.080;13.642;2023-03-21T07:22:00;8.70;99.90
74488;DHT22;63019;51.080;13.642;2023-03-21T07:23:02;8.70;99.90
74488;DHT22;63019;51.080;13.642;2023-03-21T07:24:04;8.70;99.90
74488;DHT22;63019;51.080;13.642;2023-03-21T07:25:06;8.70;99.90
74488;DHT22;63019;51.080;13.642;2023-03-21T07:26:09;8.70;99.90
74488;DHT22;63019;51.080;13.642;2023-03-21T07:27:10;8.70;99.90
74488;DHT22;63019;51.080;13.642;2023-03-21T07:28:12;8.70;99.90
74488;DHT22;63019;51.080;13.642;2023-03-21T07:29:14;8.70;99.90